TimeCST,TemperatureF,Dew PointF,Humidity,Sea Level PressureIn,VisibilityMPH,Wind Direction,Wind SpeedMPH,Gust SpeedMPH,PrecipitationIn,Events,Conditions,WindDirDegrees,DateUTC
12:53 AM,39.0,19.9,46,30.38,10.0,North,10.4,-,N/A,,Clear,350,2013-03-06 06:53:00
1:53 AM,37.9,21.0,51,30.39,10.0,North,11.5,-,N/A,,Clear,360,2013-03-06 07:53:00
2:53 AM,34.0,21.9,61,30.38,10.0,North,9.2,-,N/A,,Clear,10,2013-03-06 08:53:00
3:53 AM,35.1,23.0,61,30.38,10.0,North,8.1,-,N/A,,Clear,10,2013-03-06 09:53:00
4:53 AM,36.0,23.0,59,30.37,10.0,NNE,10.4,-,N/A,,Clear,20,2013-03-06 10:53:00
5:53 AM,36.0,21.9,57,30.40,10.0,NNE,8.1,-,N/A,,Clear,20,2013-03-06 11:53:00
6:53 AM,33.1,21.9,64,30.43,10.0,NNE,5.8,-,N/A,,Mostly Cloudy,30,2013-03-06 12:53:00
7:53 AM,39.0,23.0,53,30.44,10.0,NNE,8.1,-,N/A,,Scattered Clouds,30,2013-03-06 13:53:00
8:53 AM,43.0,21.0,42,30.46,10.0,NE,9.2,-,N/A,,Mostly Cloudy,50,2013-03-06 14:53:00
9:53 AM,46.0,19.0,34,30.44,10.0,NE,5.8,-,N/A,,Mostly Cloudy,50,2013-03-06 15:53:00
10:53 AM,48.9,18.0,29,30.44,10.0,ESE,4.6,-,N/A,,Mostly Cloudy,110,2013-03-06 16:53:00
11:53 AM,52.0,17.1,25,30.42,10.0,Variable,3.5,-,N/A,,Mostly Cloudy,0,2013-03-06 17:53:00
12:53 PM,55.0,15.1,21,30.38,10.0,SE,4.6,-,N/A,,Mostly Cloudy,130,2013-03-06 18:53:00
1:53 PM,57.9,14.0,18,30.33,10.0,Variable,4.6,-,N/A,,Mostly Cloudy,0,2013-03-06 19:53:00
2:53 PM,59.0,10.0,14,30.29,10.0,Variable,5.8,-,N/A,,Mostly Cloudy,0,2013-03-06 20:53:00
3:53 PM,60.1,10.9,14,30.27,10.0,East,4.6,-,N/A,,Overcast,90,2013-03-06 21:53:00
4:53 PM,59.0,10.9,15,30.24,10.0,Variable,3.5,-,N/A,,Overcast,0,2013-03-06 22:53:00
5:53 PM,57.0,17.1,21,30.24,10.0,ESE,4.6,-,N/A,,Overcast,120,2013-03-06 23:53:00
6:53 PM,54.0,16.0,22,30.24,10.0,ESE,6.9,-,N/A,,Overcast,120,2013-03-07 00:53:00
7:53 PM,52.0,15.1,23,30.23,10.0,SSE,4.6,-,N/A,,Mostly Cloudy,150,2013-03-07 01:53:00
8:53 PM,48.0,17.1,29,30.21,10.0,SE,6.9,-,N/A,,Partly Cloudy,140,2013-03-07 02:53:00
9:53 PM,50.0,19.0,29,30.21,10.0,SSE,8.1,-,N/A,,Mostly Cloudy,160,2013-03-07 03:53:00
10:53 PM,48.9,18.0,29,30.20,10.0,SSE,4.6,-,N/A,,Scattered Clouds,150,2013-03-07 04:53:00
11:53 PM,48.0,19.0,32,30.20,10.0,South,3.5,-,N/A,,Scattered Clouds,180,2013-03-07 05:53:00